ADDS METAR Data INFO
IDs: Format: Raw Decoded Include TAF

Data at: 1752 UTC 15 Dec 2017

KDMN 151653Z AUTO 09006KT 10SM CLR 06/M08 A3036 RMK AO2 SLP267 T00611083
KDMN 151553Z AUTO 08005KT 10SM CLR 03/M09 A3036 RMK AO2 SLP264 T00331089
KDMN 151453Z AUTO 06005KT 10SM CLR M01/M10 A3035 RMK AO2 SLP266 T10061100 53015
KDMN 151353Z AUTO 05006KT 10SM CLR M03/M11 A3033 RMK AO2 SLP259 T10281106
KDMN 151253Z AUTO 08007KT 10SM CLR M02/M11 A3031 RMK AO2 SLP249 T10171106
KDMN 151153Z AUTO 07007KT 10SM CLR M02/M10 A3030 RMK AO2 SLP243 T10171100 10039 21017 51011
KDMN 151053Z AUTO 08007KT 10SM CLR M02/M11 A3029 RMK AO2 SLP238 T10171106
KDMN 150953Z AUTO 08009KT 10SM CLR 01/M09 A3029 RMK AO2 SLP230 T00111094
KDMN 150853Z AUTO 09007KT 10SM CLR 00/M11 A3026 RMK AO2 SLP221 T00001106 51008
KDMN 150753Z AUTO 08007KT 10SM CLR 01/M10 A3026 RMK AO2 SLP219 T00111100
KDMN 150653Z AUTO 07006KT 10SM CLR 02/M10 A3025 RMK AO2 SLP214 T00221100 401941028
KDMN 150553Z AUTO 07008KT 10SM CLR 04/M09 A3024 RMK AO2 SLP210 T00391094 10139 20028 51025
KDMN 150453Z AUTO 08009KT 10SM CLR 05/M09 A3022 RMK AO2 SLP207 T00501089
KDMN 150353Z AUTO 08011KT 10SM CLR 07/M08 A3019 RMK AO2 SLP201 T00721083
KDMN 150253Z AUTO 08012KT 10SM CLR 09/M08 A3015 RMK AO2 SLP195 T00891083 53038
KDMN 150153Z AUTO 07015G19KT 9SM CLR 11/M11 A3011 RMK AO2 WSHFT 0123 SLP181 T01061106
KDMN 150143Z AUTO 08017G25KT 10SM CLR 11/M11 A3011 RMK AO2 WSHFT 0123 T01111106
KDMN 150053Z AUTO 04011KT 10SM CLR 12/M10 A3007 RMK AO2 SLP163 T01171100
KDMN 142353Z AUTO 05011KT 10SM BKN100 14/M10 A3003 RMK AO2 SLP146 T01391100 10194 20139 53018
KDMN 142253Z AUTO 04017G24KT 10SM OVC090 14/M09 A3000 RMK AO2 SLP134 T01441089
KDMN 142153Z AUTO 04018G23KT 10SM BKN100 16/M09 A2997 RMK AO2 PK WND 05026/2138 WSHFT 2127 SLP123 T01611089
KDMN 142053Z AUTO 21005KT 10SM SCT080 BKN100 18/M02 A2997 RMK AO2 SLP119 T01781017 56021
KDMN 141953Z AUTO VRB05KT 10SM CLR 18/M02 A2998 RMK AO2 SLP121 T01781022
KDMN 141853Z AUTO 21006KT 10SM CLR 17/M03 A3000 RMK AO2 SLP129 T01671033
KDMN 141753Z AUTO 00000KT 10SM CLR 14/M06 A3004 RMK AO2 SLP145 T01441056 10144 21028 50005
KDMN 141653Z AUTO VRB03KT 10SM CLR 12/M07 A3004 RMK AO2 SLP148 T01171067
KDMN 141553Z AUTO 20004KT 10SM CLR 08/M07 A3003 RMK AO2 SLP145 T00831072
KDMN 141453Z AUTO 26003KT 10SM CLR 01/M09 A3002 RMK AO2 SLP149 T00111089 51009
KDMN 141353Z AUTO 23006KT 10SM CLR M01/M09 A3002 RMK AO2 SLP149 T10111094
KDMN 141253Z AUTO 00000KT 10SM CLR M01/M09 A3001 RMK AO2 SLP142 T10111094
KDMN 141153Z AUTO 25006KT 10SM CLR M01/M09 A2999 RMK AO2 SLP132 T10061094 10028 21011 51002
KDMN 141053Z AUTO 23005KT 10SM CLR 01/M09 A2999 RMK AO2 SLP125 T00061089
KDMN 140953Z AUTO 25005KT 10SM CLR 00/M09 A2999 RMK AO2 SLP129 T00001094
KDMN 140853Z AUTO 26005KT 10SM CLR 00/M09 A2999 RMK AO2 SLP126 T00001094 55006
KDMN 140753Z AUTO 28006KT 10SM CLR 01/M10 A2998 RMK AO2 SLP127 T00061100
KDMN 140653Z AUTO 24006KT 10SM CLR 02/M10 A2999 RMK AO2 SLP132 T00171100 401721050
KDMN 140553Z AUTO 26005KT 10SM CLR 02/M09 A3001 RMK AO2 SLP139 T00221094 10150 20022 58004